createdAt,value
2022-09-07T00:00:52.155Z,8.88
2022-09-07T00:03:19.223Z,9.88
2022-09-07T00:05:47.832Z,11.63
2022-09-07T00:08:15.253Z,11.10
2022-09-07T00:10:41.801Z,12.25
2022-09-07T00:13:08.583Z,9.38
2022-09-07T00:15:39.258Z,10.75
2022-09-07T00:18:05.756Z,13.55
2022-09-07T00:20:32.275Z,9.73
2022-09-07T00:22:58.751Z,9.57
2022-09-07T00:25:25.246Z,11.77
2022-09-07T00:27:51.717Z,11.77
2022-09-07T00:30:18.274Z,14.35
2022-09-07T00:32:44.745Z,12.52
2022-09-07T00:35:12.605Z,11.98
2022-09-07T00:37:39.094Z,11.43
2022-09-07T00:40:06.087Z,12.20
2022-09-07T00:42:32.697Z,10.10
2022-09-07T00:45:19.676Z,13.65
2022-09-07T00:48:06.655Z,15.15
2022-09-07T00:50:37.465Z,16.00
2022-09-07T00:53:11.878Z,15.40
2022-09-07T00:55:39.890Z,15.88
2022-09-07T00:58:07.154Z,16.92
2022-09-07T01:00:33.670Z,13.35
2022-09-07T01:03:00.809Z,17.63
2022-09-07T01:05:57.289Z,18.58
2022-09-07T01:08:24.276Z,16.88
2022-09-07T01:10:50.877Z,20.33
2022-09-07T01:13:17.409Z,16.65
2022-09-07T01:15:59.674Z,23.70
2022-09-07T01:18:38.157Z,20.27
2022-09-07T01:21:29.512Z,22.77
2022-09-07T01:24:12.201Z,30.67
2022-09-07T01:27:16.206Z,53.70
2022-09-07T01:29:49.953Z,37.22
2022-09-07T01:41:25.162Z,66.20
2022-09-07T01:44:07.646Z,24.95
2022-09-07T01:46:42.196Z,22.45
2022-09-07T01:49:16.173Z,22.38
2022-09-07T01:51:45.346Z,27.42
2022-09-07T01:54:22.666Z,26.13
2022-09-07T01:56:50.294Z,23.17
2022-09-07T01:59:32.666Z,19.95
2022-09-07T02:02:29.592Z,19.08
2022-09-07T02:05:05.888Z,23.25
2022-09-07T02:07:55.788Z,27.10
2022-09-07T02:10:26.930Z,19.20
2022-09-07T02:13:01.940Z,19.85
2022-09-07T02:15:37.092Z,18.25
2022-09-07T02:18:05.469Z,18.02
2022-09-07T02:20:37.620Z,21.15
2022-09-07T02:23:15.381Z,19.33
2022-09-07T02:25:48.117Z,19.55
2022-09-07T02:28:16.986Z,26.05
2022-09-07T02:30:44.021Z,19.38
2022-09-07T02:33:10.614Z,18.77
2022-09-07T02:35:37.189Z,18.27
2022-09-07T02:38:06.392Z,19.55
2022-09-07T02:40:33.148Z,25.00
2022-09-07T02:43:02.126Z,20.48
2022-09-07T02:45:51.007Z,23.25
2022-09-07T02:48:24.193Z,25.33
2022-09-07T02:51:05.955Z,26.20
2022-09-07T02:53:45.491Z,19.27
2022-09-07T02:56:34.887Z,20.40
2022-09-07T02:59:11.122Z,22.17
2022-09-07T03:01:54.504Z,18.40
2022-09-07T03:04:25.322Z,20.80
2022-09-07T03:07:03.991Z,19.75
2022-09-07T03:09:35.272Z,19.38
2022-09-07T03:12:05.658Z,19.38
2022-09-07T03:14:33.670Z,16.63
2022-09-07T03:17:00.494Z,20.23
2022-09-07T03:19:27.244Z,17.83
2022-09-07T03:21:53.797Z,19.27
2022-09-07T03:24:20.353Z,18.70
2022-09-07T03:26:48.557Z,16.55
2022-09-07T03:29:15.631Z,19.83
2022-09-07T03:31:42.120Z,17.30
2022-09-07T03:34:08.661Z,17.00
2022-09-07T03:36:35.429Z,17.50
2022-09-07T03:39:02.336Z,21.98
2022-09-07T03:41:29.081Z,19.40
2022-09-07T03:43:55.636Z,18.17
2022-09-07T03:46:22.268Z,19.80
2022-09-07T03:48:49.594Z,22.75
2022-09-07T03:51:17.818Z,17.33
2022-09-07T03:53:46.191Z,18.23
2022-09-07T03:56:16.149Z,21.08
2022-09-07T03:58:42.667Z,18.58
2022-09-07T04:01:12.096Z,18.13
2022-09-07T04:03:39.484Z,17.67
2022-09-07T04:06:06.112Z,17.70
2022-09-07T04:08:34.526Z,21.35
2022-09-07T04:11:02.734Z,16.33
2022-09-07T04:13:30.554Z,17.80
2022-09-07T04:15:57.624Z,18.65
2022-09-07T04:18:24.562Z,17.17
2022-09-07T04:20:51.410Z,15.77
2022-09-07T04:23:18.874Z,15.90
2022-09-07T04:25:52.086Z,16.38
2022-09-07T04:28:19.751Z,16.20
2022-09-07T04:30:46.851Z,16.40
2022-09-07T04:33:13.878Z,16.35
2022-09-07T04:35:41.551Z,19.15
2022-09-07T04:38:08.762Z,17.00
2022-09-07T04:40:36.281Z,20.17
2022-09-07T04:43:05.362Z,16.15
2022-09-07T04:45:31.852Z,16.25
2022-09-07T04:47:58.352Z,18.42
2022-09-07T04:50:24.897Z,20.17
2022-09-07T04:52:51.372Z,20.38
2022-09-07T04:55:17.865Z,20.52
2022-09-07T04:57:44.383Z,19.90
2022-09-07T05:00:11.574Z,19.88
2022-09-07T05:02:38.592Z,21.95
2022-09-07T05:05:06.225Z,21.63
2022-09-07T05:07:32.858Z,19.77
2022-09-07T05:09:59.376Z,34.67
2022-09-07T05:12:26.038Z,20.23
2022-09-07T05:14:52.554Z,21.83
2022-09-07T05:17:19.662Z,20.90
2022-09-07T05:19:46.182Z,22.13
2022-09-07T05:22:12.669Z,21.40
2022-09-07T05:24:39.266Z,20.38
2022-09-07T05:27:05.762Z,22.80
2022-09-07T05:32:18.786Z,26.33
2022-09-07T05:34:46.733Z,23.13
2022-09-07T05:37:14.118Z,24.08
2022-09-07T05:39:40.619Z,24.20
2022-09-07T05:42:07.448Z,25.77
2022-09-07T05:44:49.384Z,27.83
2022-09-07T05:47:15.940Z,28.23
2022-09-07T05:49:42.523Z,25.48
2022-09-07T05:52:09.284Z,27.25
2022-09-07T05:54:35.764Z,25.45
2022-09-07T05:57:03.585Z,27.65
2022-09-07T05:59:30.331Z,25.90
2022-09-07T06:01:56.927Z,26.38
2022-09-07T06:04:23.569Z,30.33
2022-09-07T06:07:17.555Z,28.40
2022-09-07T06:12:23.281Z,27.83
2022-09-07T06:14:49.756Z,30.67
2022-09-07T06:17:16.262Z,28.88
2022-09-07T06:19:42.765Z,29.73
2022-09-07T06:22:09.242Z,28.08
2022-09-07T06:24:35.727Z,27.48
2022-09-07T06:27:02.205Z,29.25
2022-09-07T06:29:28.699Z,31.52
2022-09-07T06:34:41.736Z,28.58
2022-09-07T06:37:08.231Z,37.22
2022-09-07T06:39:36.249Z,37.25
2022-09-07T06:42:04.165Z,23.45
2022-09-07T06:44:31.937Z,35.28
2022-09-07T06:49:28.172Z,37.90
2022-09-07T06:51:54.712Z,29.35
2022-09-07T06:57:09.259Z,31.10
2022-09-07T06:59:36.654Z,33.50
2022-09-07T07:02:03.607Z,39.67
2022-09-07T07:04:30.137Z,35.65
2022-09-07T07:06:56.618Z,36.85
2022-09-07T07:09:23.117Z,31.23
2022-09-07T07:11:49.730Z,31.98
2022-09-07T07:14:17.346Z,27.38
2022-09-07T07:16:44.026Z,30.20
2022-09-07T07:19:10.561Z,27.40
2022-09-07T07:21:55.386Z,27.25
2022-09-07T07:24:23.556Z,23.33
2022-09-07T07:26:50.040Z,28.17
2022-09-07T07:29:18.763Z,28.25
2022-09-07T07:31:47.039Z,29.88
2022-09-07T07:34:13.809Z,26.85
2022-09-07T07:36:40.298Z,29.95
2022-09-07T07:39:06.989Z,29.05
2022-09-07T07:44:20.867Z,33.72
2022-09-07T07:46:49.103Z,34.17
2022-09-07T07:49:15.947Z,30.58
2022-09-07T07:54:29.201Z,35.75
2022-09-07T07:56:55.660Z,30.65
2022-09-07T07:59:22.105Z,31.00
2022-09-07T08:01:48.701Z,32.47
2022-09-07T08:04:15.425Z,30.98
2022-09-07T08:06:42.590Z,31.88
2022-09-07T08:09:09.238Z,32.42
2022-09-07T08:11:35.681Z,34.50
2022-09-07T08:14:04.600Z,30.88
2022-09-07T08:16:31.131Z,32.00
2022-09-07T08:18:57.935Z,30.45
2022-09-07T08:21:25.158Z,31.45
2022-09-07T08:23:51.625Z,33.17
2022-09-07T08:26:18.081Z,26.92
2022-09-07T08:28:45.509Z,27.73
2022-09-07T08:31:14.154Z,24.85
2022-09-07T08:33:41.083Z,24.88
2022-09-07T08:36:11.128Z,27.52
2022-09-07T08:38:38.192Z,26.02
2022-09-07T08:41:33.625Z,23.98
2022-09-07T08:44:04.130Z,27.48
2022-09-07T08:46:40.198Z,23.90
2022-09-07T08:49:15.702Z,22.88
2022-09-07T08:51:46.906Z,24.17
2022-09-07T08:54:15.062Z,22.65
2022-09-07T08:57:20.523Z,23.38
2022-09-07T08:59:47.286Z,25.83
2022-09-07T09:02:36.478Z,23.05
2022-09-07T09:05:20.396Z,18.10
2022-09-07T09:08:26.118Z,17.90
2022-09-07T09:11:09.985Z,17.90
2022-09-07T09:13:58.222Z,17.10
2022-09-07T09:16:34.470Z,16.73
2022-09-07T09:19:29.678Z,17.48
2022-09-07T09:22:10.225Z,16.83
2022-09-07T09:24:38.745Z,18.27
2022-09-07T09:27:05.269Z,16.70
2022-09-07T09:29:33.285Z,18.52
2022-09-07T09:31:59.708Z,19.27
2022-09-07T09:34:29.418Z,18.40
2022-09-07T09:36:57.778Z,17.23
2022-09-07T09:39:37.468Z,18.33
2022-09-07T09:42:12.733Z,18.13
2022-09-07T09:44:39.370Z,17.60
2022-09-07T09:49:53.585Z,15.80
2022-09-07T09:52:30.406Z,15.75
2022-09-07T09:55:17.275Z,16.25
2022-09-07T10:01:21.070Z,13.48
2022-09-07T10:06:16.690Z,12.05
2022-09-07T10:08:53.618Z,11.43
2022-09-07T10:14:35.478Z,11.35
2022-09-07T10:17:11.137Z,13.23
2022-09-07T10:19:39.689Z,13.30
2022-09-07T10:22:32.097Z,11.50
2022-09-07T10:25:00.780Z,10.35
2022-09-07T10:27:37.418Z,9.60
2022-09-07T10:30:13.738Z,8.43
2022-09-07T10:32:48.483Z,6.13
2022-09-07T10:35:29.865Z,6.60
2022-09-07T10:38:06.819Z,6.47
2022-09-07T10:40:35.326Z,8.32
2022-09-07T10:43:23.620Z,5.13
2022-09-07T10:46:56.078Z,4.65
2022-09-07T10:49:12.780Z,4.43
2022-09-07T10:51:51.297Z,6.95
2022-09-07T10:54:37.798Z,7.50
2022-09-07T10:57:16.279Z,8.98
2022-09-07T11:00:11.281Z,5.57
2022-09-07T11:02:41.067Z,7.30
2022-09-07T11:05:34.285Z,6.15
2022-09-07T11:09:15.104Z,6.13
2022-09-07T11:14:18.370Z,7.82
2022-09-07T11:17:03.867Z,6.43
2022-09-07T11:19:35.330Z,4.68
2022-09-07T11:22:30.030Z,4.55
2022-09-07T11:27:51.337Z,7.97
2022-09-07T11:30:19.562Z,5.68
2022-09-07T11:32:58.013Z,6.80
2022-09-07T11:35:24.830Z,5.03
2022-09-07T11:37:59.276Z,6.75
2022-09-07T11:40:31.675Z,4.20
2022-09-07T11:43:20.818Z,3.60
2022-09-07T11:46:10.232Z,5.22
2022-09-07T11:48:43.575Z,6.45
2022-09-07T11:54:01.139Z,6.05
2022-09-07T11:56:36.710Z,4.10
2022-09-07T11:59:28.377Z,4.53
2022-09-07T12:02:36.713Z,5.22
2022-09-07T12:05:41.406Z,4.20
2022-09-07T12:08:25.996Z,5.78
2022-09-07T12:11:08.131Z,3.35
2022-09-07T12:13:46.735Z,7.03
2022-09-07T12:16:28.562Z,6.95
2022-09-07T12:19:23.536Z,3.97
2022-09-07T12:21:52.972Z,5.30
2022-09-07T12:24:38.411Z,4.88
2022-09-07T12:27:09.186Z,5.07
2022-09-07T12:29:35.934Z,6.38
2022-09-07T12:34:53.012Z,5.28
2022-09-07T12:37:37.755Z,3.28
2022-09-07T12:40:28.881Z,4.43
2022-09-07T12:43:13.624Z,4.15
2022-09-07T12:45:49.889Z,5.13
2022-09-07T12:48:16.298Z,4.85
2022-09-07T12:51:02.246Z,5.55
2022-09-07T12:53:48.569Z,8.30
2022-09-07T12:56:33.458Z,5.78
2022-09-07T12:59:21.689Z,3.72
2022-09-07T13:02:13.923Z,3.70
2022-09-07T13:05:01.654Z,5.28
2022-09-07T13:07:33.646Z,2.60
2022-09-07T13:10:03.002Z,4.55
2022-09-07T13:12:54.879Z,4.60
2022-09-07T13:15:45.764Z,3.78
2022-09-07T13:18:27.302Z,4.95
2022-09-07T13:21:08.915Z,4.63
2022-09-07T13:23:39.597Z,5.13
2022-09-07T13:26:09.045Z,3.15
2022-09-07T13:28:47.665Z,5.15
2022-09-07T13:31:23.629Z,4.03
2022-09-07T13:33:54.253Z,4.22
2022-09-07T13:36:25.614Z,4.45
2022-09-07T13:38:53.534Z,3.15
2022-09-07T13:41:27.263Z,3.72
2022-09-07T13:43:59.694Z,4.88
2022-09-07T13:46:44.468Z,4.82
2022-09-07T13:49:41.989Z,4.32
2022-09-07T13:52:15.869Z,3.08
2022-09-07T13:54:45.616Z,5.15
2022-09-07T13:57:24.150Z,5.18
2022-09-07T13:59:51.586Z,3.05
2022-09-07T14:02:27.174Z,2.78
2022-09-07T14:04:56.594Z,1.60
2022-09-07T14:07:24.834Z,2.58
2022-09-07T14:10:10.830Z,3.03
2022-09-07T14:12:55.098Z,3.50
2022-09-07T14:15:29.357Z,3.10
2022-09-07T14:18:13.490Z,2.90
2022-09-07T14:20:48.243Z,4.85
2022-09-07T14:23:34.844Z,4.38
2022-09-07T14:26:18.336Z,2.22
2022-09-07T14:28:46.626Z,2.78
2022-09-07T14:31:15.493Z,3.28
2022-09-07T14:34:00.721Z,2.00
2022-09-07T14:36:45.624Z,3.45
2022-09-07T14:39:14.107Z,3.50
2022-09-07T14:41:41.971Z,2.60
2022-09-07T14:44:27.421Z,4.88
2022-09-07T14:46:56.710Z,2.90
2022-09-07T14:49:24.100Z,2.63
2022-09-07T14:51:51.926Z,3.95
2022-09-07T14:54:21.100Z,2.38
2022-09-07T14:57:26.065Z,3.15
2022-09-07T14:59:53.724Z,2.78
2022-09-07T15:02:23.990Z,4.03
2022-09-07T15:05:18.201Z,3.63
2022-09-07T15:07:50.507Z,4.30
2022-09-07T15:10:23.688Z,4.30
2022-09-07T15:12:55.881Z,4.35
2022-09-07T15:15:28.178Z,2.92
2022-09-07T15:17:59.017Z,4.97
2022-09-07T15:20:43.098Z,3.00
2022-09-07T15:23:14.395Z,2.88
2022-09-07T15:25:46.512Z,2.78
2022-09-07T15:33:59.743Z,4.82
2022-09-07T15:36:26.377Z,4.57
2022-09-07T15:39:00.430Z,2.60
2022-09-07T15:41:28.405Z,5.60
2022-09-07T15:43:56.639Z,14.00
2022-09-07T15:46:24.887Z,16.65
2022-09-07T15:48:55.465Z,12.65
2022-09-07T15:54:14.098Z,9.90
2022-09-07T15:56:42.709Z,9.15
2022-09-07T15:59:10.531Z,13.90
2022-09-07T16:01:54.721Z,8.40
2022-09-07T16:04:24.118Z,7.85
2022-09-07T16:06:50.782Z,6.45
2022-09-07T16:09:17.447Z,8.82
2022-09-07T16:11:44.431Z,7.57
2022-09-07T16:14:12.294Z,8.38
2022-09-07T16:19:25.234Z,11.55
2022-09-07T16:21:51.791Z,12.88
2022-09-07T16:24:18.275Z,16.23
2022-09-07T16:26:44.848Z,12.25
2022-09-07T16:29:11.331Z,9.07
2022-09-07T16:31:38.174Z,11.73
2022-09-07T16:34:04.904Z,11.57
2022-09-07T16:36:31.338Z,11.52
2022-09-07T16:38:59.649Z,10.75
2022-09-07T16:41:29.129Z,10.10
2022-09-07T16:43:55.974Z,10.32
2022-09-07T16:46:24.607Z,11.60
2022-09-07T16:48:51.610Z,9.05
2022-09-07T16:51:21.099Z,7.15
2022-09-07T16:53:49.064Z,8.25
2022-09-07T16:56:17.863Z,6.43
2022-09-07T16:58:49.959Z,4.53
2022-09-07T17:01:18.893Z,2.78
2022-09-07T17:03:46.007Z,4.45
2022-09-07T17:06:13.930Z,3.83
2022-09-07T17:08:40.646Z,3.47
2022-09-07T17:11:12.370Z,2.80
2022-09-07T17:13:39.743Z,3.17
2022-09-07T17:16:10.936Z,6.70
2022-09-07T17:21:24.757Z,4.18
2022-09-07T17:23:55.549Z,4.35
2022-09-07T17:26:26.470Z,6.05
2022-09-07T17:28:55.386Z,3.47
2022-09-07T17:34:13.089Z,4.90
2022-09-07T17:36:40.124Z,4.35
2022-09-07T17:39:15.301Z,3.40
2022-09-07T17:41:42.749Z,7.07
2022-09-07T17:44:09.253Z,2.63
2022-09-07T17:46:36.172Z,4.05
2022-09-07T17:49:03.274Z,4.65
2022-09-07T17:51:31.607Z,3.33
2022-09-07T17:54:00.344Z,2.97
2022-09-07T17:56:26.998Z,5.07
2022-09-07T17:58:53.790Z,3.35
2022-09-07T18:01:21.165Z,3.80
2022-09-07T18:03:47.810Z,3.28
2022-09-07T18:06:14.533Z,6.10
2022-09-07T18:08:41.335Z,3.42
2022-09-07T18:14:03.814Z,3.13
2022-09-07T18:16:33.764Z,3.22
2022-09-07T18:19:02.220Z,3.53
2022-09-07T18:21:31.745Z,2.70
2022-09-07T18:24:04.836Z,2.17
2022-09-07T18:26:36.242Z,3.45
2022-09-07T18:29:04.784Z,3.38
2022-09-07T18:31:33.508Z,2.50
2022-09-07T18:34:01.706Z,5.40
2022-09-07T18:36:29.110Z,4.00
2022-09-07T18:38:55.727Z,2.92
2022-09-07T18:41:22.308Z,3.08
2022-09-07T18:43:48.786Z,3.35
2022-09-07T18:46:17.856Z,3.75
2022-09-07T18:48:44.758Z,3.00
2022-09-07T18:51:11.540Z,3.08
2022-09-07T18:53:38.110Z,2.63
2022-09-07T18:56:06.870Z,3.63
2022-09-07T18:58:34.253Z,3.30
2022-09-07T19:01:05.979Z,3.78
2022-09-07T19:03:32.721Z,5.90
2022-09-07T19:06:00.702Z,5.00
2022-09-07T19:08:31.308Z,3.90
2022-09-07T19:11:06.887Z,4.68
2022-09-07T19:13:34.516Z,9.10
2022-09-07T19:16:19.680Z,8.38
2022-09-07T19:18:50.054Z,5.47
2022-09-07T19:21:19.620Z,4.25
2022-09-07T19:23:59.377Z,3.60
2022-09-07T19:26:27.630Z,4.80
2022-09-07T19:28:57.222Z,5.10
2022-09-07T19:31:24.808Z,4.70
2022-09-07T19:33:58.343Z,4.60
2022-09-07T19:38:55.367Z,4.78
2022-09-07T19:41:22.333Z,4.53
2022-09-07T19:43:48.938Z,3.83
2022-09-07T19:46:19.422Z,6.20
2022-09-07T19:48:47.999Z,4.10
2022-09-07T19:51:15.713Z,7.05
2022-09-07T19:53:44.385Z,7.63
2022-09-07T19:56:13.266Z,8.57
2022-09-07T19:58:41.681Z,6.18
2022-09-07T20:01:13.690Z,8.23
2022-09-07T20:03:41.135Z,7.40
2022-09-07T20:06:15.501Z,4.90
2022-09-07T20:08:42.805Z,5.43
2022-09-07T20:11:11.859Z,5.28
2022-09-07T20:13:39.214Z,6.38
2022-09-07T20:16:07.475Z,6.75
2022-09-07T20:18:37.928Z,6.78
2022-09-07T20:21:06.288Z,5.93
2022-09-07T20:23:34.349Z,5.38
2022-09-07T20:26:03.077Z,5.63
2022-09-07T20:28:29.874Z,5.13
2022-09-07T20:30:56.462Z,5.65
2022-09-07T20:33:23.606Z,6.28
2022-09-07T20:35:50.134Z,6.07
2022-09-07T20:38:17.952Z,6.10
2022-09-07T20:40:55.506Z,8.18
2022-09-07T20:43:22.194Z,7.47
2022-09-07T20:45:48.932Z,6.75
2022-09-07T20:48:15.468Z,7.07
2022-09-07T20:50:42.321Z,8.40
2022-09-07T20:53:08.789Z,6.70
2022-09-07T20:55:35.893Z,6.72
2022-09-07T20:58:02.635Z,6.28
2022-09-07T21:00:29.420Z,6.95
2022-09-07T21:02:56.323Z,5.80
2022-09-07T21:05:22.890Z,6.28
2022-09-07T21:07:49.403Z,6.57
2022-09-07T21:10:15.923Z,7.90
2022-09-07T21:12:42.439Z,6.00
2022-09-07T21:15:09.726Z,7.85
2022-09-07T21:17:36.171Z,6.75
2022-09-07T21:20:02.910Z,7.03
2022-09-07T21:22:30.751Z,7.88
2022-09-07T21:24:57.218Z,8.98
2022-09-07T21:27:24.430Z,8.02
2022-09-07T21:29:51.083Z,7.22
2022-09-07T21:32:17.551Z,8.07
2022-09-07T21:34:44.046Z,7.00
2022-09-07T21:37:10.495Z,8.15
2022-09-07T21:39:37.008Z,8.43
2022-09-07T21:42:04.373Z,9.15
2022-09-07T21:44:30.815Z,9.00
2022-09-07T21:46:57.419Z,12.10
2022-09-07T21:49:23.921Z,10.30
2022-09-07T21:51:50.359Z,10.07
2022-09-07T21:54:16.836Z,10.57
2022-09-07T21:56:46.490Z,12.90
2022-09-07T21:59:13.470Z,11.10
2022-09-07T22:01:40.782Z,10.20
2022-09-07T22:04:07.324Z,11.85
2022-09-07T22:06:33.855Z,11.85
2022-09-07T22:09:01.078Z,10.98
2022-09-07T22:11:29.079Z,15.18
2022-09-07T22:14:00.157Z,13.45
2022-09-07T22:16:26.773Z,12.80
2022-09-07T22:18:53.585Z,17.50
2022-09-07T22:21:23.972Z,17.33
2022-09-07T22:23:53.030Z,18.90
2022-09-07T22:26:21.762Z,17.95
2022-09-07T22:28:48.835Z,17.92
2022-09-07T22:31:16.972Z,18.65
2022-09-07T22:33:43.937Z,20.13
2022-09-07T22:36:32.302Z,17.83
2022-09-07T22:39:01.086Z,23.35
2022-09-07T22:41:33.459Z,23.48
2022-09-07T22:44:00.570Z,22.33
2022-09-07T22:46:28.805Z,25.80
2022-09-07T22:48:56.934Z,26.08
2022-09-07T22:51:26.662Z,26.20
2022-09-07T22:53:53.244Z,27.52
2022-09-07T22:56:22.033Z,29.17
2022-09-07T22:58:56.333Z,30.13
2022-09-07T23:01:23.114Z,27.13
2022-09-07T23:03:50.145Z,28.80
2022-09-07T23:06:24.845Z,26.35
2022-09-07T23:08:52.297Z,26.58
2022-09-07T23:11:19.741Z,26.92
2022-09-07T23:13:50.497Z,31.70
2022-09-07T23:16:16.991Z,27.42
2022-09-07T23:18:43.446Z,31.55
2022-09-07T23:21:10.213Z,29.23
2022-09-07T23:23:36.745Z,30.42
2022-09-07T23:26:03.786Z,32.17
2022-09-07T23:28:30.931Z,29.55
2022-09-07T23:30:57.751Z,37.03
2022-09-07T23:33:24.605Z,29.55
2022-09-07T23:36:02.578Z,32.17
2022-09-07T23:38:29.909Z,36.80
2022-09-07T23:40:57.721Z,33.15
2022-09-07T23:43:25.002Z,36.05
2022-09-07T23:45:51.441Z,32.55
2022-09-07T23:48:18.050Z,37.45
2022-09-07T23:50:45.538Z,37.92
2022-09-07T23:53:12.091Z,34.97
2022-09-07T23:55:39.019Z,34.75
2022-09-07T23:58:05.738Z,34.28
